Time;durP1;ratioP1;P1;durP2;ratioP2;P2;SDS_P1;SDS_P2;PMS_P1;PMS_P2;Temp;Humidity;BMP_temperature;BMP_pressure;BME280_temperature;BME280_humidity;BME280_pressure;Samples;Min_cycle;Max_cycle;Signal;HPM_P1;HPM_P2
2021/11/28 00:01:17;;;;;;;13.48;7.80;;;4.60;99.90;;;;;;5078970;22;20232;-78
2021/11/28 00:03:46;;;;;;;9.65;5.90;;;4.30;99.90;;;;;;5100350;28;20211;-79
2021/11/28 00:06:20;;;;;;;8.32;5.25;;;4.40;99.90;;;;;;5100524;28;20211;-78
2021/11/28 00:09:07;;;;;;;12.50;5.95;;;4.60;99.90;;;;;;5100493;28;20284;-80
2021/11/28 00:11:34;;;;;;;7.60;5.15;;;4.70;99.90;;;;;;5101002;28;20232;-80
2021/11/28 00:14:10;;;;;;;8.73;5.45;;;4.50;99.90;;;;;;5100608;28;20225;-79
2021/11/28 00:16:37;;;;;;;9.18;5.63;;;4.60;99.90;;;;;;5100404;28;20196;-80
2021/11/28 00:19:07;;;;;;;7.35;5.18;;;4.70;99.90;;;;;;5100357;28;20209;-79
2021/11/28 00:21:34;;;;;;;8.02;5.38;;;4.60;99.90;;;;;;5100654;28;20225;-79
2021/11/28 00:24:01;;;;;;;8.73;5.80;;;4.50;99.90;;;;;;5100306;28;20211;-79
2021/11/28 00:26:29;;;;;;;8.25;5.22;;;4.40;99.90;;;;;;5100633;28;20204;-79
2021/11/28 00:28:56;;;;;;;8.35;5.10;;;4.50;99.90;;;;;;5101495;28;20205;-79
2021/11/28 00:31:23;;;;;;;11.25;5.35;;;4.40;99.90;;;;;;5100998;28;20220;-79
2021/11/28 00:33:50;;;;;;;14.10;6.10;;;4.50;99.90;;;;;;5100531;28;20231;-79
2021/11/28 00:36:18;;;;;;;8.88;5.95;;;4.40;99.90;;;;;;5100636;28;20212;-79
2021/11/28 00:38:45;;;;;;;9.15;5.28;;;4.30;99.90;;;;;;5099639;28;20205;-80
2021/11/28 00:41:12;;;;;;;9.48;5.13;;;4.10;99.90;;;;;;5100349;28;20231;-79
2021/11/28 00:43:38;;;;;;;7.28;4.38;;;4.40;99.90;;;;;;5100338;28;20575;-81
2021/11/28 00:46:05;;;;;;;5.93;3.67;;;4.30;99.90;;;;;;5099772;28;20645;-79
2021/11/28 00:48:32;;;;;;;7.95;4.25;;;4.10;99.90;;;;;;5100351;28;20223;-80
2021/11/28 00:51:33;;;;;;;6.65;3.53;;;4.30;99.90;;;;;;5103550;28;20309;-77
2021/11/28 00:54:02;;;;;;;4.95;3.20;;;4.30;99.90;;;;;;5103594;28;20209;-78
2021/11/28 00:56:29;;;;;;;8.35;4.05;;;4.30;99.90;;;;;;5100028;28;20733;-79
2021/11/28 00:58:55;;;;;;;6.25;3.55;;;4.20;99.90;;;;;;5100550;28;20268;-79
2021/11/28 01:01:22;;;;;;;5.90;3.55;;;4.20;99.90;;;;;;5099705;28;20233;-80
2021/11/28 01:03:49;;;;;;;6.00;3.50;;;4.40;99.90;;;;;;5099878;28;20206;-80
2021/11/28 01:06:16;;;;;;;5.85;3.63;;;4.30;99.90;;;;;;5099946;28;20216;-79
2021/11/28 01:08:43;;;;;;;7.68;3.80;;;4.60;99.90;;;;;;5100953;28;20587;-80
2021/11/28 01:11:11;;;;;;;10.05;4.38;;;4.70;99.90;;;;;;5099096;28;20377;-79
2021/11/28 01:13:38;;;;;;;7.20;4.13;;;4.70;99.90;;;;;;5099660;28;20235;-79
2021/11/28 01:16:05;;;;;;;7.55;3.75;;;4.30;99.90;;;;;;5100073;28;20201;-78
2021/11/28 01:18:33;;;;;;;7.88;3.65;;;4.50;99.90;;;;;;5099071;28;20215;-81
2021/11/28 01:21:00;;;;;;;6.35;3.92;;;4.70;99.90;;;;;;5099859;28;20225;-79
2021/11/28 01:23:27;;;;;;;6.20;3.45;;;4.70;99.90;;;;;;5099279;28;20292;-78
2021/11/28 01:25:54;;;;;;;6.32;3.15;;;4.90;99.90;;;;;;5098932;28;20219;-80
2021/11/28 01:28:22;;;;;;;9.27;4.20;;;4.70;99.90;;;;;;5097899;28;20216;-80
2021/11/28 01:30:49;;;;;;;7.63;4.10;;;4.70;99.90;;;;;;5099208;28;20277;-78
2021/11/28 01:33:15;;;;;;;6.78;3.88;;;4.70;99.90;;;;;;5097911;28;20216;-78
2021/11/28 01:35:43;;;;;;;6.75;3.45;;;4.80;99.90;;;;;;5097931;28;20213;-78
2021/11/28 01:38:10;;;;;;;7.25;3.17;;;4.70;99.90;;;;;;5096951;28;20669;-78
2021/11/28 01:40:36;;;;;;;5.82;3.15;;;4.70;99.90;;;;;;5097264;28;20209;-79
2021/11/28 01:43:05;;;;;;;7.72;3.60;;;4.60;99.90;;;;;;5098694;28;20557;-78
2021/11/28 01:45:35;;;;;;;8.50;3.10;;;4.80;99.90;;;;;;5098309;28;20205;-79
2021/11/28 01:48:05;;;;;;;6.50;3.55;;;4.60;99.90;;;;;;5098150;28;20279;-79
2021/11/28 01:50:34;;;;;;;6.70;3.60;;;4.70;99.90;;;;;;5104237;28;20193;-79
2021/11/28 01:53:01;;;;;;;7.60;4.18;;;4.60;99.90;;;;;;5114107;28;20281;-78
2021/11/28 01:55:31;;;;;;;8.43;3.38;;;4.60;99.90;;;;;;5112967;28;20276;-78
2021/11/28 01:57:59;;;;;;;7.00;3.35;;;4.70;99.90;;;;;;5105084;28;20292;-79
2021/11/28 02:00:30;;;;;;;8.95;3.50;;;4.80;99.90;;;;;;5105304;28;20201;-78
2021/11/28 02:02:59;;;;;;;6.53;3.00;;;4.80;99.90;;;;;;5110003;28;20256;-78
2021/11/28 02:05:29;;;;;;;6.15;3.10;;;4.60;99.90;;;;;;5098150;28;20212;-79
2021/11/28 02:07:56;;;;;;;6.65;3.55;;;4.60;99.90;;;;;;5104698;28;20254;-78
2021/11/28 02:10:24;;;;;;;4.78;2.72;;;4.60;99.90;;;;;;5102964;28;20205;-79
2021/11/28 02:12:51;;;;;;;6.60;3.70;;;4.50;99.90;;;;;;5098106;28;20227;-79
2021/11/28 02:15:20;;;;;;;5.63;3.00;;;4.70;99.90;;;;;;5097976;28;20236;-79
2021/11/28 02:17:50;;;;;;;5.22;2.78;;;4.50;99.90;;;;;;5097745;28;20224;-79
2021/11/28 02:20:22;;;;;;;5.88;3.30;;;4.40;99.90;;;;;;5098496;28;20204;-79
2021/11/28 02:22:51;;;;;;;6.20;2.72;;;4.60;99.90;;;;;;5098017;28;20231;-79
2021/11/28 02:25:18;;;;;;;7.03;3.15;;;4.40;99.90;;;;;;5097833;28;20216;-79
2021/11/28 02:27:45;;;;;;;4.28;2.75;;;4.60;99.90;;;;;;5098326;28;20232;-80
2021/11/28 02:30:14;;;;;;;5.93;3.47;;;4.70;99.90;;;;;;5100042;28;20207;-78
2021/11/28 02:32:41;;;;;;;6.65;3.20;;;4.80;99.90;;;;;;5098628;28;20224;-78
2021/11/28 02:35:08;;;;;;;5.40;3.17;;;4.70;99.90;;;;;;5096612;28;20228;-78
2021/11/28 02:37:35;;;;;;;5.28;2.72;;;4.50;99.90;;;;;;5096337;28;20703;-79
2021/11/28 02:40:04;;;;;;;5.88;3.42;;;4.60;99.90;;;;;;5096593;28;20201;-79
2021/11/28 02:42:31;;;;;;;9.80;3.40;;;4.70;99.90;;;;;;5104409;28;20602;-79
2021/11/28 02:44:58;;;;;;;6.22;3.17;;;4.50;99.90;;;;;;5103739;28;20207;-78
2021/11/28 02:47:24;;;;;;;6.63;3.33;;;4.70;99.90;;;;;;5103785;28;20204;-78
2021/11/28 02:49:51;;;;;;;5.20;2.70;;;4.80;99.90;;;;;;5104950;28;20200;-77
2021/11/28 02:52:18;;;;;;;8.65;3.42;;;4.90;99.90;;;;;;5101431;28;20235;-78
2021/11/28 02:54:45;;;;;;;5.60;2.92;;;4.70;99.90;;;;;;5109858;28;20220;-78
2021/11/28 02:57:14;;;;;;;5.45;3.55;;;4.70;99.90;;;;;;5110797;28;20311;-77
2021/11/28 02:59:41;;;;;;;12.10;6.03;;;4.70;99.90;;;;;;5109635;28;20201;-77
2021/11/28 03:02:08;;;;;;;6.95;3.10;;;4.90;99.90;;;;;;5108792;28;20240;-77
2021/11/28 03:04:35;;;;;;;5.57;2.83;;;4.70;99.90;;;;;;5102822;28;20201;-78
2021/11/28 03:07:03;;;;;;;5.53;2.88;;;4.70;99.90;;;;;;5110974;28;20200;-78
2021/11/28 03:09:30;;;;;;;6.88;4.00;;;4.70;99.90;;;;;;5108325;28;20213;-77
2021/11/28 03:11:56;;;;;;;4.88;2.83;;;4.70;99.90;;;;;;5107715;28;20220;-77
2021/11/28 03:14:25;;;;;;;6.85;3.17;;;4.60;99.90;;;;;;5102457;28;20734;-77
2021/11/28 03:16:52;;;;;;;6.13;3.08;;;4.50;99.90;;;;;;5105127;28;20201;-78
2021/11/28 03:19:18;;;;;;;6.47;3.20;;;4.70;99.90;;;;;;5104696;28;20219;-78
2021/11/28 03:21:45;;;;;;;6.80;3.33;;;4.70;99.90;;;;;;5103437;28;20288;-78
2021/11/28 03:24:12;;;;;;;6.22;3.10;;;4.80;99.90;;;;;;5104579;28;20200;-78
2021/11/28 03:26:41;;;;;;;7.20;3.65;;;4.50;99.90;;;;;;5104255;28;20263;-78
2021/11/28 03:29:11;;;;;;;6.20;3.00;;;4.60;99.90;;;;;;5102691;28;20208;-79
2021/11/28 03:31:41;;;;;;;8.52;4.45;;;4.60;99.90;;;;;;5105041;28;20224;-78
2021/11/28 03:34:09;;;;;;;5.13;2.70;;;4.60;99.90;;;;;;5113166;28;20216;-78
2021/11/28 03:36:39;;;;;;;7.35;3.42;;;4.40;99.90;;;;;;5107722;28;20209;-78
2021/11/28 03:39:10;;;;;;;5.40;3.00;;;4.60;99.90;;;;;;5105892;28;20208;-78
2021/11/28 03:41:37;;;;;;;7.88;3.25;;;4.70;99.90;;;;;;5102424;28;20225;-78
2021/11/28 03:44:06;;;;;;;5.88;2.60;;;4.50;99.90;;;;;;5105888;28;20201;-78
2021/11/28 03:46:33;;;;;;;7.68;3.15;;;4.70;99.90;;;;;;5103831;28;20205;-79
2021/11/28 03:49:03;;;;;;;5.93;2.78;;;4.50;99.90;;;;;;5103014;28;20224;-79
2021/11/28 03:51:30;;;;;;;6.97;3.20;;;4.30;99.90;;;;;;5099855;28;20235;-79
2021/11/28 03:53:57;;;;;;;6.20;2.80;;;4.50;99.90;;;;;;5099841;28;20585;-78
2021/11/28 03:56:24;;;;;;;7.03;4.03;;;4.60;99.90;;;;;;5099632;28;20208;-79
2021/11/28 03:58:51;;;;;;;6.03;3.55;;;4.70;99.90;;;;;;5101411;28;20204;-78
2021/11/28 04:01:19;;;;;;;8.77;2.92;;;4.40;99.90;;;;;;5101646;28;20240;-78
2021/11/28 04:03:46;;;;;;;8.63;3.70;;;4.40;99.90;;;;;;5101217;28;20207;-79
2021/11/28 04:06:15;;;;;;;5.10;2.63;;;4.50;99.90;;;;;;5100858;28;20205;-79
2021/11/28 04:08:42;;;;;;;4.88;2.80;;;4.40;99.90;;;;;;5100595;28;20215;-79
2021/11/28 04:11:09;;;;;;;6.72;3.10;;;4.50;99.90;;;;;;5100730;28;20616;-79
2021/11/28 04:13:36;;;;;;;6.22;2.65;;;4.40;99.90;;;;;;5099998;28;20212;-78
2021/11/28 04:16:03;;;;;;;5.80;3.38;;;4.50;99.90;;;;;;5100396;28;20215;-79
2021/11/28 04:18:30;;;;;;;6.65;2.85;;;4.40;99.90;;;;;;5100128;28;20207;-79
2021/11/28 04:20:57;;;;;;;7.40;2.92;;;4.40;99.90;;;;;;5099501;28;20225;-78
2021/11/28 04:23:25;;;;;;;5.05;2.70;;;4.60;99.90;;;;;;5109288;28;20564;-79
2021/11/28 04:25:52;;;;;;;5.18;2.50;;;4.70;99.90;;;;;;5109206;28;20633;-80
2021/11/28 04:28:19;;;;;;;5.13;3.08;;;4.70;99.90;;;;;;5106781;28;20215;-79
2021/11/28 04:30:46;;;;;;;4.60;2.63;;;4.90;99.90;;;;;;5103289;28;20672;-79
2021/11/28 04:33:15;;;;;;;5.00;2.40;;;5.20;99.90;;;;;;5101579;28;20240;-81
2021/11/28 04:35:42;;;;;;;4.80;2.22;;;5.00;99.90;;;;;;5101312;28;20236;-79
2021/11/28 04:38:09;;;;;;;4.72;2.60;;;4.80;99.90;;;;;;5100554;28;20685;-80
2021/11/28 04:40:37;;;;;;;6.93;2.42;;;4.70;99.90;;;;;;5100678;28;20213;-77
2021/11/28 04:43:04;;;;;;;6.47;2.40;;;4.40;99.90;;;;;;5099525;28;20205;-78
2021/11/28 04:45:31;;;;;;;9.90;2.67;;;4.70;99.90;;;;;;5100498;28;20580;-80
2021/11/28 04:47:57;;;;;;;8.48;3.00;;;5.00;99.90;;;;;;5100423;28;20255;-80
2021/11/28 04:50:24;;;;;;;5.45;2.40;;;4.70;99.90;;;;;;5100804;28;20208;-79
2021/11/28 04:52:51;;;;;;;6.50;3.28;;;4.50;99.90;;;;;;5100116;28;20239;-80
2021/11/28 04:55:18;;;;;;;5.38;2.28;;;4.60;99.90;;;;;;5099707;28;20228;-79
2021/11/28 04:57:46;;;;;;;6.55;2.55;;;4.40;99.90;;;;;;5113637;28;20266;-78
2021/11/28 05:00:17;;;;;;;6.18;2.60;;;4.70;99.90;;;;;;5111814;28;20204;-78
2021/11/28 05:02:43;;;;;;;7.25;3.10;;;4.80;99.90;;;;;;5099768;28;20233;-77
2021/11/28 05:05:10;;;;;;;4.97;2.72;;;4.70;99.90;;;;;;5103198;28;20216;-77
2021/11/28 05:07:37;;;;;;;8.43;3.13;;;4.70;99.90;;;;;;5101725;28;20236;-79
2021/11/28 05:10:06;;;;;;;6.00;2.72;;;4.60;99.90;;;;;;5101047;28;20239;-78
2021/11/28 05:12:32;;;;;;;4.32;2.30;;;4.70;99.90;;;;;;5102147;28;20223;-78
2021/11/28 05:15:01;;;;;;;5.82;3.13;;;4.60;99.90;;;;;;5100911;28;20224;-80
2021/11/28 05:17:27;;;;;;;6.78;3.40;;;4.80;99.90;;;;;;5100200;28;20205;-80
2021/11/28 05:19:54;;;;;;;5.22;2.65;;;4.60;99.90;;;;;;5104097;28;20201;-78
2021/11/28 05:22:21;;;;;;;6.95;2.97;;;4.60;99.90;;;;;;5102160;28;20231;-78
2021/11/28 05:24:50;;;;;;;5.22;2.60;;;4.90;99.90;;;;;;5104202;28;20197;-79
2021/11/28 05:27:17;;;;;;;4.93;2.45;;;4.70;99.90;;;;;;5100622;28;20236;-78
2021/11/28 05:29:44;;;;;;;5.15;2.70;;;4.80;99.90;;;;;;5097402;28;20209;-79
2021/11/28 05:32:12;;;;;;;7.28;2.90;;;4.70;99.90;;;;;;5099085;28;20310;-78
2021/11/28 05:34:39;;;;;;;4.55;2.72;;;4.60;99.90;;;;;;5098310;28;20224;-78
2021/11/28 05:37:06;;;;;;;3.78;2.13;;;4.60;99.90;;;;;;5099092;28;20193;-79
2021/11/28 05:39:33;;;;;;;5.85;2.78;;;4.50;99.90;;;;;;5097053;28;20220;-78
2021/11/28 05:42:00;;;;;;;4.45;2.45;;;4.60;99.90;;;;;;5096839;28;20237;-80
2021/11/28 05:44:27;;;;;;;5.75;2.50;;;4.60;99.90;;;;;;5096876;28;20223;-78
2021/11/28 05:46:53;;;;;;;6.22;2.53;;;4.40;99.90;;;;;;5096124;28;20205;-78
2021/11/28 05:49:22;;;;;;;5.03;2.50;;;4.30;99.90;;;;;;5097497;28;20209;-78
2021/11/28 05:51:49;;;;;;;5.70;2.47;;;4.50;99.90;;;;;;5098184;28;20311;-79
2021/11/28 05:54:16;;;;;;;6.90;2.90;;;4.40;99.90;;;;;;5097341;28;20681;-79
2021/11/28 05:56:43;;;;;;;5.93;2.45;;;4.50;99.90;;;;;;5098261;28;20215;-78
2021/11/28 05:59:10;;;;;;;5.75;2.30;;;4.30;99.90;;;;;;5098138;28;20209;-79
2021/11/28 06:01:37;;;;;;;5.25;2.97;;;4.10;99.90;;;;;;5115411;22;20233;-78
2021/11/28 06:04:04;;;;;;;4.82;2.80;;;4.20;99.90;;;;;;5075140;28;20232;-78
2021/11/28 06:06:32;;;;;;;5.45;2.35;;;4.20;99.90;;;;;;5075162;28;20208;-78
2021/11/28 06:08:59;;;;;;;4.82;2.53;;;4.20;99.90;;;;;;5074904;28;20221;-78
2021/11/28 06:11:26;;;;;;;5.15;2.50;;;4.10;99.90;;;;;;5077483;28;20717;-77
2021/11/28 06:13:53;;;;;;;4.60;2.50;;;4.50;99.90;;;;;;5078570;28;20201;-79
2021/11/28 06:16:22;;;;;;;3.97;2.17;;;4.30;99.90;;;;;;5078497;28;20221;-78
2021/11/28 06:18:48;;;;;;;5.30;2.63;;;4.30;99.90;;;;;;5078217;28;20205;-79
2021/11/28 06:21:15;;;;;;;5.22;2.67;;;4.30;99.90;;;;;;5077166;28;20586;-78
2021/11/28 06:23:43;;;;;;;5.03;2.58;;;4.40;99.90;;;;;;5078154;28;20260;-78
2021/11/28 06:26:10;;;;;;;4.90;2.50;;;4.40;99.90;;;;;;5077910;28;20223;-79
2021/11/28 06:28:37;;;;;;;5.95;2.92;;;4.50;99.90;;;;;;5077903;28;20201;-78
2021/11/28 06:31:04;;;;;;;4.38;2.40;;;4.30;99.90;;;;;;5078217;28;20208;-77
2021/11/28 06:33:31;;;;;;;5.53;2.45;;;4.30;99.90;;;;;;5079797;28;20216;-78
2021/11/28 06:35:58;;;;;;;4.95;2.00;;;4.30;99.90;;;;;;5081029;28;20218;-79
2021/11/28 06:38:25;;;;;;;4.85;2.65;;;4.30;99.90;;;;;;5085551;28;20281;-78
2021/11/28 06:40:53;;;;;;;5.78;2.85;;;4.40;99.90;;;;;;5082656;28;20208;-79
2021/11/28 06:43:20;;;;;;;7.68;2.53;;;4.40;99.90;;;;;;5079121;28;20237;-79
2021/11/28 06:45:47;;;;;;;4.35;2.90;;;4.30;99.90;;;;;;5077800;28;20208;-78
2021/11/28 06:48:13;;;;;;;6.45;2.88;;;4.40;99.90;;;;;;5078139;28;20288;-79
2021/11/28 06:50:40;;;;;;;6.18;3.20;;;4.40;99.90;;;;;;5078904;28;20213;-79
2021/11/28 06:53:07;;;;;;;6.05;2.90;;;4.50;99.90;;;;;;5076976;28;20669;-78
2021/11/28 06:55:35;;;;;;;6.68;2.50;;;4.40;99.90;;;;;;5077820;28;20221;-78
2021/11/28 06:58:03;;;;;;;5.25;2.85;;;4.40;99.90;;;;;;5077781;28;20210;-78
2021/11/28 07:00:30;;;;;;;4.35;2.35;;;4.40;99.90;;;;;;5077175;28;20224;-78
2021/11/28 07:02:56;;;;;;;6.47;3.25;;;4.50;99.90;;;;;;5077330;28;20589;-78
2021/11/28 07:05:23;;;;;;;6.32;3.15;;;4.60;99.90;;;;;;5077331;28;20198;-78
2021/11/28 07:07:50;;;;;;;5.78;2.70;;;4.40;99.90;;;;;;5077557;28;20220;-78
2021/11/28 07:10:17;;;;;;;5.22;2.65;;;4.70;99.90;;;;;;5077887;28;20209;-78
2021/11/28 07:12:44;;;;;;;7.03;2.47;;;4.80;99.90;;;;;;5080266;28;20225;-79
2021/11/28 07:15:13;;;;;;;5.25;2.63;;;4.80;99.90;;;;;;5077605;28;20295;-79
2021/11/28 07:17:40;;;;;;;7.70;3.03;;;4.90;99.90;;;;;;5077287;28;20215;-78
2021/11/28 07:20:08;;;;;;;8.43;2.40;;;4.70;99.90;;;;;;5077203;28;20205;-78
2021/11/28 07:22:36;;;;;;;5.13;2.58;;;4.80;99.90;;;;;;5077181;28;20232;-78
2021/11/28 07:25:03;;;;;;;11.52;2.83;;;4.70;99.90;;;;;;5077647;28;20208;-78
2021/11/28 07:27:30;;;;;;;4.78;2.80;;;4.60;99.90;;;;;;5076751;28;20692;-78
2021/11/28 07:29:57;;;;;;;9.13;2.40;;;4.60;99.90;;;;;;5082210;28;20215;-78
2021/11/28 07:32:25;;;;;;;5.50;3.20;;;4.60;99.90;;;;;;5078392;28;20225;-77
2021/11/28 07:34:52;;;;;;;5.47;2.92;;;4.40;99.90;;;;;;5078525;28;20212;-78
2021/11/28 07:37:19;;;;;;;6.57;2.65;;;4.40;99.90;;;;;;5081227;28;20194;-78
2021/11/28 07:39:45;;;;;;;4.18;2.50;;;4.30;99.90;;;;;;5080864;28;20207;-79
2021/11/28 07:42:12;;;;;;;6.90;2.80;;;4.60;99.90;;;;;;5081278;28;20229;-78
2021/11/28 07:44:39;;;;;;;5.07;2.83;;;4.40;99.90;;;;;;5079583;28;20216;-78
2021/11/28 07:47:06;;;;;;;7.50;3.22;;;4.50;99.90;;;;;;5078091;28;20209;-78
2021/11/28 07:49:34;;;;;;;7.45;3.58;;;4.50;99.90;;;;;;5078042;28;20209;-79
2021/11/28 07:52:01;;;;;;;7.28;3.47;;;4.60;99.90;;;;;;5080520;28;20236;-79
2021/11/28 07:54:28;;;;;;;5.78;3.38;;;4.70;99.90;;;;;;5083090;28;20603;-79
2021/11/28 07:56:54;;;;;;;7.10;3.10;;;4.60;99.90;;;;;;5081519;28;20223;-79
2021/11/28 07:59:21;;;;;;;6.13;3.17;;;4.50;99.90;;;;;;5087105;28;20209;-78
2021/11/28 08:01:48;;;;;;;4.80;2.70;;;4.70;99.90;;;;;;5089370;28;20233;-78
2021/11/28 08:04:15;;;;;;;6.68;2.47;;;4.50;99.90;;;;;;5082105;28;20208;-78
2021/11/28 08:06:43;;;;;;;8.20;3.13;;;4.60;99.90;;;;;;5079418;28;20201;-78
2021/11/28 08:09:10;;;;;;;7.35;2.75;;;4.70;99.90;;;;;;5078282;28;20236;-78
2021/11/28 08:11:36;;;;;;;5.65;3.17;;;4.70;99.90;;;;;;5077931;28;20312;-78
2021/11/28 08:14:03;;;;;;;7.05;2.90;;;4.70;99.90;;;;;;5078550;28;20201;-77
2021/11/28 08:16:30;;;;;;;5.68;3.20;;;4.80;99.90;;;;;;5077582;28;20701;-78
2021/11/28 08:18:57;;;;;;;6.32;3.47;;;4.90;99.90;;;;;;5077895;28;20213;-77
2021/11/28 08:21:27;;;;;;;6.75;4.38;;;4.70;99.90;;;;;;5078018;28;20232;-78
2021/11/28 08:23:56;;;;;;;5.93;2.95;;;4.90;99.90;;;;;;5080127;28;20208;-79
2021/11/28 08:26:23;;;;;;;6.32;3.50;;;5.10;99.90;;;;;;5081076;28;20206;-78
2021/11/28 08:28:51;;;;;;;8.50;3.33;;;5.10;99.90;;;;;;5083920;28;20311;-78
2021/11/28 08:31:18;;;;;;;5.97;3.00;;;5.20;99.90;;;;;;5081981;28;20603;-78
2021/11/28 08:33:45;;;;;;;8.10;3.70;;;5.30;99.90;;;;;;5084058;28;20222;-78
2021/11/28 08:36:12;;;;;;;8.25;3.03;;;5.60;99.90;;;;;;5081085;28;20228;-79
2021/11/28 08:38:42;;;;;;;4.43;2.42;;;5.40;99.90;;;;;;5080174;28;20682;-78
2021/11/28 08:41:11;;;;;;;5.30;2.95;;;5.50;99.90;;;;;;5080724;28;20211;-79
2021/11/28 08:43:38;;;;;;;5.43;2.80;;;5.50;99.90;;;;;;5081388;28;20305;-78
2021/11/28 08:46:04;;;;;;;7.68;3.28;;;5.60;99.90;;;;;;5085790;28;20198;-78
2021/11/28 08:48:31;;;;;;;5.95;3.17;;;5.40;99.90;;;;;;5083244;28;20308;-79
2021/11/28 08:50:58;;;;;;;6.95;3.75;;;5.30;99.90;;;;;;5085282;28;20273;-78
2021/11/28 08:53:26;;;;;;;6.32;3.00;;;5.30;99.90;;;;;;5079296;28;20224;-78
2021/11/28 08:55:53;;;;;;;5.22;2.97;;;5.50;99.90;;;;;;5080526;28;20248;-79
2021/11/28 08:58:22;;;;;;;5.18;2.78;;;5.40;99.90;;;;;;5078512;28;20220;-79
2021/11/28 09:00:48;;;;;;;5.40;2.70;;;5.40;99.90;;;;;;5079506;28;20213;-78
2021/11/28 09:03:16;;;;;;;5.07;2.50;;;5.40;99.90;;;;;;5078168;28;20608;-78
2021/11/28 09:05:42;;;;;;;6.75;2.72;;;5.30;99.90;;;;;;5078242;28;20201;-78
2021/11/28 09:08:09;;;;;;;6.65;3.00;;;5.40;99.90;;;;;;5078176;28;20202;-79
2021/11/28 09:10:37;;;;;;;5.40;3.25;;;5.50;99.90;;;;;;5078585;28;20598;-79
2021/11/28 09:13:04;;;;;;;5.10;2.80;;;5.30;99.90;;;;;;5076950;28;20226;-78
2021/11/28 09:15:33;;;;;;;5.25;3.10;;;5.30;99.90;;;;;;5077238;28;20729;-78
2021/11/28 09:18:05;;;;;;;5.50;2.88;;;5.70;99.90;;;;;;5076971;28;20269;-78
2021/11/28 09:20:31;;;;;;;5.80;3.10;;;5.60;99.90;;;;;;5077168;28;20202;-78
2021/11/28 09:25:43;;;;;;;7.00;3.40;;;5.40;99.90;;;;;;5084282;28;20189;-78
2021/11/28 09:28:10;;;;;;;5.45;3.30;;;5.70;99.90;;;;;;5081177;28;20208;-78
2021/11/28 09:30:38;;;;;;;5.85;3.20;;;5.70;99.90;;;;;;5080432;28;20211;-79
2021/11/28 09:33:06;;;;;;;7.82;3.72;;;5.60;99.90;;;;;;5076956;28;20221;-78
2021/11/28 09:35:34;;;;;;;6.10;2.92;;;5.70;99.90;;;;;;5077161;28;20255;-78
2021/11/28 09:38:01;;;;;;;5.00;3.13;;;5.70;99.90;;;;;;5078838;28;20255;-78
2021/11/28 09:40:28;;;;;;;5.40;3.03;;;5.80;99.90;;;;;;5079301;28;20209;-78
2021/11/28 09:42:58;;;;;;;7.40;3.20;;;5.60;99.90;;;;;;5078099;28;20221;-79
2021/11/28 09:45:26;;;;;;;10.50;3.78;;;5.50;99.90;;;;;;5080964;28;20209;-79
2021/11/28 09:47:56;;;;;;;8.13;3.75;;;5.70;99.90;;;;;;5077460;28;20205;-78
2021/11/28 09:50:24;;;;;;;10.25;4.22;;;5.80;99.90;;;;;;5077116;28;20220;-78
2021/11/28 09:52:51;;;;;;;6.07;3.42;;;6.00;99.90;;;;;;5076741;28;20304;-78
2021/11/28 09:55:19;;;;;;;5.18;3.00;;;6.20;99.90;;;;;;5079447;28;20214;-78
2021/11/28 09:57:46;;;;;;;5.40;2.75;;;5.80;99.90;;;;;;5079750;28;20225;-78
2021/11/28 10:00:16;;;;;;;5.55;3.00;;;5.70;99.90;;;;;;5079431;28;20213;-78
2021/11/28 10:02:43;;;;;;;5.93;3.03;;;5.80;99.90;;;;;;5076116;28;20237;-79
2021/11/28 10:05:12;;;;;;;6.05;3.35;;;5.80;99.90;;;;;;5078080;28;20206;-79
2021/11/28 10:07:44;;;;;;;5.90;2.60;;;5.80;99.90;;;;;;5077114;28;20213;-79
2021/11/28 10:10:12;;;;;;;6.43;3.20;;;5.80;99.90;;;;;;5077680;28;20192;-79
2021/11/28 10:12:42;;;;;;;4.65;2.45;;;5.80;99.90;;;;;;5078068;28;20575;-79
2021/11/28 10:15:12;;;;;;;8.18;3.40;;;5.70;99.90;;;;;;5079095;28;20318;-79
2021/11/28 10:17:40;;;;;;;7.10;2.60;;;5.60;99.90;;;;;;5078435;28;20236;-79
2021/11/28 10:20:09;;;;;;;5.13;2.80;;;5.80;99.90;;;;;;5079320;28;20209;-79
2021/11/28 10:22:38;;;;;;;6.05;3.10;;;5.90;99.90;;;;;;5078440;28;20226;-79
2021/11/28 10:25:11;;;;;;;5.13;2.55;;;6.00;99.90;;;;;;5077262;28;20685;-78
2021/11/28 10:27:41;;;;;;;7.93;2.97;;;5.90;99.90;;;;;;5086330;28;20549;-79
2021/11/28 10:30:10;;;;;;;6.05;2.80;;;5.80;99.90;;;;;;5087699;28;20202;-79
2021/11/28 10:32:42;;;;;;;6.07;2.50;;;5.80;99.90;;;;;;5088933;28;20285;-79
2021/11/28 10:35:11;;;;;;;4.95;2.63;;;5.70;99.90;;;;;;5084398;28;20209;-79
2021/11/28 10:37:42;;;;;;;7.25;2.95;;;5.90;99.90;;;;;;5084394;28;20721;-79
2021/11/28 10:40:11;;;;;;;6.28;3.00;;;5.80;99.90;;;;;;5082823;28;20195;-79
2021/11/28 10:42:38;;;;;;;4.60;2.78;;;5.90;99.90;;;;;;5079665;28;20232;-78
2021/11/28 10:45:08;;;;;;;5.78;3.28;;;6.00;99.90;;;;;;5078226;28;20239;-79
2021/11/28 10:47:38;;;;;;;5.55;3.20;;;5.90;99.90;;;;;;5077570;28;20731;-79
2021/11/28 10:50:18;;;;;;;5.53;2.88;;;6.10;99.90;;;;;;5080669;28;20215;-79
2021/11/28 10:52:50;;;;;;;6.32;3.10;;;6.00;99.90;;;;;;5078356;28;20321;-79
2021/11/28 10:55:23;;;;;;;5.30;2.75;;;6.10;99.90;;;;;;5081689;28;20665;-80
2021/11/28 10:58:06;;;;;;;7.00;3.50;;;6.00;99.90;;;;;;5080704;28;20210;-78
2021/11/28 11:00:33;;;;;;;6.22;2.60;;;5.90;99.90;;;;;;5083153;28;20189;-79
2021/11/28 11:03:17;;;;;;;5.28;2.25;;;5.90;99.90;;;;;;5080350;28;20612;-79
2021/11/28 11:05:44;;;;;;;5.72;2.53;;;5.90;99.90;;;;;;5080016;28;20189;-79
2021/11/28 11:08:15;;;;;;;5.13;2.40;;;6.10;99.90;;;;;;5081987;28;20212;-79
2021/11/28 11:10:44;;;;;;;5.35;2.80;;;6.10;99.90;;;;;;5082445;28;20217;-79
2021/11/28 11:13:14;;;;;;;4.47;2.08;;;5.90;99.90;;;;;;5082764;28;20324;-79
2021/11/28 11:15:45;;;;;;;3.50;2.00;;;6.10;99.90;;;;;;5083455;28;20205;-79
2021/11/28 11:18:15;;;;;;;4.78;2.28;;;6.10;99.90;;;;;;5082952;28;20240;-78
2021/11/28 11:20:44;;;;;;;6.72;1.85;;;6.20;99.90;;;;;;5080661;28;20209;-79
2021/11/28 11:23:39;;;;;;;5.55;1.95;;;6.30;99.90;;;;;;5080788;28;20230;-80
2021/11/28 11:26:14;;;;;;;5.15;2.03;;;6.20;99.90;;;;;;5080192;28;20202;-78
2021/11/28 11:29:05;;;;;;;7.20;2.40;;;6.00;99.90;;;;;;5081863;28;20669;-80
2021/11/28 11:31:32;;;;;;;5.35;2.35;;;6.20;99.90;;;;;;5081247;28;20286;-79
2021/11/28 11:33:59;;;;;;;6.05;2.45;;;6.10;99.90;;;;;;5081808;28;20670;-79
2021/11/28 11:36:53;;;;;;;3.28;1.60;;;6.20;99.90;;;;;;5081409;28;20229;-79
2021/11/28 11:39:22;;;;;;;4.10;2.00;;;5.90;99.90;;;;;;5082192;28;20333;-79
2021/11/28 11:41:49;;;;;;;5.43;2.17;;;6.00;99.90;;;;;;5080290;28;20229;-80
2021/11/28 11:44:17;;;;;;;4.10;2.05;;;6.10;99.90;;;;;;5081293;28;20209;-79
2021/11/28 11:46:46;;;;;;;5.15;2.22;;;6.00;99.90;;;;;;5080546;28;20274;-78
2021/11/28 11:49:14;;;;;;;3.65;1.50;;;6.00;99.90;;;;;;5079985;28;20213;-78
2021/11/28 11:51:41;;;;;;;3.40;1.60;;;5.90;99.90;;;;;;5080702;28;20237;-78
2021/11/28 11:54:16;;;;;;;5.28;1.88;;;6.10;99.90;;;;;;5080932;28;20208;-79
2021/11/28 11:56:44;;;;;;;3.40;1.70;;;5.90;99.90;;;;;;5084676;28;20217;-79
2021/11/28 11:59:22;;;;;;;4.68;1.75;;;6.10;99.90;;;;;;5086242;28;20216;-79
2021/11/28 12:02:00;;;;;;;6.25;2.08;;;6.10;99.90;;;;;;5127600;22;20314;-84
2021/11/28 12:04:36;;;;;;;5.50;1.98;;;6.20;99.90;;;;;;5060587;28;20183;-84
2021/11/28 12:07:04;;;;;;;3.60;2.00;;;6.10;99.90;;;;;;5062428;28;20202;-84
2021/11/28 12:09:32;;;;;;;3.90;1.90;;;6.20;99.90;;;;;;5066265;28;20216;-83
2021/11/28 12:12:02;;;;;;;6.20;2.22;;;6.90;99.90;;;;;;5060989;28;20246;-83
2021/11/28 12:14:29;;;;;;;8.38;2.90;;;6.80;99.90;;;;;;5060530;28;20519;-83
2021/11/28 12:16:56;;;;;;;3.45;1.52;;;6.40;99.90;;;;;;5060838;28;20240;-84
2021/11/28 12:19:41;;;;;;;4.18;1.60;;;6.70;99.90;;;;;;5060272;28;20224;-84
2021/11/28 12:22:28;;;;;;;4.70;2.45;;;6.70;99.90;;;;;;5059437;28;20230;-84
2021/11/28 12:25:17;;;;;;;4.07;2.05;;;6.90;99.90;;;;;;5060606;28;20219;-83
2021/11/28 12:27:49;;;;;;;7.15;2.38;;;6.80;99.90;;;;;;5062499;28;20225;-83
2021/11/28 12:30:35;;;;;;;8.68;4.47;;;6.70;99.90;;;;;;5062152;28;20199;-83
2021/11/28 12:33:01;;;;;;;8.75;4.80;;;6.60;99.90;;;;;;5075153;28;20257;-82
2021/11/28 12:35:38;;;;;;;8.40;4.65;;;6.40;99.90;;;;;;5068387;28;20238;-83
2021/11/28 12:38:04;;;;;;;9.98;4.60;;;6.30;99.90;;;;;;5063866;28;20216;-83
2021/11/28 12:40:34;;;;;;;6.90;4.40;;;6.10;99.90;;;;;;5063996;28;20212;-83
2021/11/28 12:43:19;;;;;;;6.00;4.05;;;6.20;99.90;;;;;;5062713;28;20566;-83
2021/11/28 12:45:47;;;;;;;8.18;4.75;;;6.20;99.90;;;;;;5061975;28;20647;-83
2021/11/28 12:48:19;;;;;;;7.15;4.95;;;5.90;99.90;;;;;;5061674;28;20206;-83
2021/11/28 12:50:56;;;;;;;7.72;5.75;;;6.30;99.90;;;;;;5061003;28;20201;-82
2021/11/28 12:53:31;;;;;;;8.80;4.82;;;6.10;99.90;;;;;;5064055;28;20226;-81
2021/11/28 12:56:20;;;;;;;9.15;5.63;;;5.80;99.90;;;;;;5075016;28;20273;-82
2021/11/28 12:59:22;;;;;;;7.68;5.60;;;5.70;99.90;;;;;;5063394;28;20642;-84
2021/11/28 13:02:00;;;;;;;8.30;4.75;;;5.80;99.90;;;;;;5061157;28;20230;-83
2021/11/28 13:04:50;;;;;;;8.48;5.53;;;5.70;99.90;;;;;;5060030;28;20538;-83
2021/11/28 13:07:36;;;;;;;11.02;5.78;;;5.60;99.90;;;;;;5060019;28;20190;-83
2021/11/28 13:10:26;;;;;;;7.68;5.10;;;5.70;99.90;;;;;;5059708;28;20237;-83